Pagina principale
METAR-TAF:

METAR-TAF

Aeroporti :

Le Touquet, Francia

latitudine: 50-30-53N, longitudine: 001-37-39E, altezza: 6 m

Osservazione

Il bollettino è stato emesso 32 minuti fa, alle 06:30 UTC
Vento 14 kt da nord
Temperature 8°C
Umidità 93%
Pressione 1011 hPa
Visibilità: 6000 m
pioggia debole

METAR: LFAT 180630Z AUTO 35014KT 6000 -RA BKN009/// BKN016/// OVC046/// ///TCU 08/07 Q1011 TEMPO 3000 SHRA

Ora: 08:02 (07:02 UTC)

Previsione

Il bollettino è stato emesso 2 ore e 2 minuti fa, alle 05:00 UTC
Previsione valida dal 18 alle 06 UTC al 18 alle 15 UTC
Vento 7 kt da nord
Visibilità 10 km o più
Nuvoloso ad un'altezza di 1700 ft
Temporaneamente
dal 18 alle 06 UTC al 18 alle 10 UTC
Visibilità: 3000 m
Nuvoloso ad un'altezza di 700 ft
Nuvoloso ad un'altezza di 3000 ft, Cumulo congesto.
rovesci di pioggia

TAF: LFAT 180500Z 1806/1815 35007KT 9999 BKN017 TEMPO 1806/1810 3000 SHRA BKN007 BKN030TCU

Osservazioni e previsioni meteorologiche di più di 4000 aeroporti (messaggi METAR e TAF).

Le stazioni disponibili sono rappresentate dai dischi gialli e rossi sulla carta.

Puntare il mouse per vedere il nome della stazione.

Clicca sopra per visualizzare le osservazioni e previsioni meteorologiche.

Per cambiare la mappa : fare clic sui pulsanti verdi con una croce nera per ingrandire, il pulsante verde con un trattino per diminuire, o sulla freccia verde per le mappe adiacenti.


METAR-TAF: